sensor_id;sensor_type;location;lat;lon;timestamp;temperature;humidity
50690;DHT22;54375;48.298;11.238;2022-10-30T00:02:56;9.10;92.60
50690;DHT22;54375;48.298;11.238;2022-10-30T00:06:03;9.10;92.80
50690;DHT22;54375;48.298;11.238;2022-10-30T00:09:05;9.00;93.10
50690;DHT22;54375;48.298;11.238;2022-10-30T00:12:06;9.00;93.40
50690;DHT22;54375;48.298;11.238;2022-10-30T00:15:10;9.00;94.40
50690;DHT22;54375;48.298;11.238;2022-10-30T00:18:11;9.10;93.90
50690;DHT22;54375;48.298;11.238;2022-10-30T00:21:13;9.00;93.90
50690;DHT22;54375;48.298;11.238;2022-10-30T00:24:15;9.00;93.90
50690;DHT22;54375;48.298;11.238;2022-10-30T00:27:17;9.00;93.90
50690;DHT22;54375;48.298;11.238;2022-10-30T00:30:19;8.90;93.80
50690;DHT22;54375;48.298;11.238;2022-10-30T00:33:20;8.90;93.80
50690;DHT22;54375;48.298;11.238;2022-10-30T00:36:22;8.90;93.70
50690;DHT22;54375;48.298;11.238;2022-10-30T00:39:23;8.80;93.60
50690;DHT22;54375;48.298;11.238;2022-10-30T00:42:28;8.80;93.50
50690;DHT22;54375;48.298;11.238;2022-10-30T00:45:31;8.70;93.40
50690;DHT22;54375;48.298;11.238;2022-10-30T00:48:33;8.70;93.30
50690;DHT22;54375;48.298;11.238;2022-10-30T00:51:34;8.70;93.40
50690;DHT22;54375;48.298;11.238;2022-10-30T00:54:37;8.60;93.30
50690;DHT22;54375;48.298;11.238;2022-10-30T00:57:39;8.60;93.20
50690;DHT22;54375;48.298;11.238;2022-10-30T01:00:47;8.60;93.20
50690;DHT22;54375;48.298;11.238;2022-10-30T01:03:55;8.50;93.10
50690;DHT22;54375;48.298;11.238;2022-10-30T01:06:58;8.50;93.40
50690;DHT22;54375;48.298;11.238;2022-10-30T01:10:00;8.50;93.40
50690;DHT22;54375;48.298;11.238;2022-10-30T01:13:01;8.40;93.40
50690;DHT22;54375;48.298;11.238;2022-10-30T01:16:17;8.40;93.40
50690;DHT22;54375;48.298;11.238;2022-10-30T01:19:25;8.30;93.40
50690;DHT22;54375;48.298;11.238;2022-10-30T01:22:39;8.30;93.40
50690;DHT22;54375;48.298;11.238;2022-10-30T01:25:55;8.30;93.50
50690;DHT22;54375;48.298;11.238;2022-10-30T01:29:18;8.30;93.50
50690;DHT22;54375;48.298;11.238;2022-10-30T01:32:40;8.30;94.10
50690;DHT22;54375;48.298;11.238;2022-10-30T01:35:47;8.30;94.20
50690;DHT22;54375;48.298;11.238;2022-10-30T01:38:53;8.30;94.00
50690;DHT22;54375;48.298;11.238;2022-10-30T01:41:55;8.30;94.00
50690;DHT22;54375;48.298;11.238;2022-10-30T01:44:56;8.30;93.90
50690;DHT22;54375;48.298;11.238;2022-10-30T01:48:22;8.20;93.90
50690;DHT22;54375;48.298;11.238;2022-10-30T01:51:38;8.20;93.80
50690;DHT22;54375;48.298;11.238;2022-10-30T01:54:45;8.10;94.00
50690;DHT22;54375;48.298;11.238;2022-10-30T01:57:54;8.10;93.70
50690;DHT22;54375;48.298;11.238;2022-10-30T02:00:59;8.10;93.60
50690;DHT22;54375;48.298;11.238;2022-10-30T02:04:03;8.00;93.60
50690;DHT22;54375;48.298;11.238;2022-10-30T02:07:04;8.00;93.50
50690;DHT22;54375;48.298;11.238;2022-10-30T02:10:06;7.90;93.50
50690;DHT22;54375;48.298;11.238;2022-10-30T02:13:07;7.90;93.50
50690;DHT22;54375;48.298;11.238;2022-10-30T02:16:08;7.90;93.60
50690;DHT22;54375;48.298;11.238;2022-10-30T02:19:10;7.80;93.50
50690;DHT22;54375;48.298;11.238;2022-10-30T02:22:13;7.80;93.40
50690;DHT22;54375;48.298;11.238;2022-10-30T02:25:15;7.70;93.30
50690;DHT22;54375;48.298;11.238;2022-10-30T02:28:16;7.70;93.30
50690;DHT22;54375;48.298;11.238;2022-10-30T02:31:17;7.70;93.30
50690;DHT22;54375;48.298;11.238;2022-10-30T02:34:19;7.60;93.30
50690;DHT22;54375;48.298;11.238;2022-10-30T02:37:21;7.60;93.30
50690;DHT22;54375;48.298;11.238;2022-10-30T02:40:22;7.60;93.20
50690;DHT22;54375;48.298;11.238;2022-10-30T02:43:23;7.50;93.10
50690;DHT22;54375;48.298;11.238;2022-10-30T02:46:24;7.50;93.20
50690;DHT22;54375;48.298;11.238;2022-10-30T02:49:25;7.50;93.20
50690;DHT22;54375;48.298;11.238;2022-10-30T02:52:28;7.50;93.20
50690;DHT22;54375;48.298;11.238;2022-10-30T02:55:29;7.40;93.30
50690;DHT22;54375;48.298;11.238;2022-10-30T02:58:31;7.40;93.00
50690;DHT22;54375;48.298;11.238;2022-10-30T03:01:32;7.30;93.10
50690;DHT22;54375;48.298;11.238;2022-10-30T03:04:34;7.30;93.10
50690;DHT22;54375;48.298;11.238;2022-10-30T03:07:37;7.30;93.30
50690;DHT22;54375;48.298;11.238;2022-10-30T03:10:38;7.30;93.40
50690;DHT22;54375;48.298;11.238;2022-10-30T03:13:40;7.30;93.50
50690;DHT22;54375;48.298;11.238;2022-10-30T03:16:41;7.20;93.40
50690;DHT22;54375;48.298;11.238;2022-10-30T03:19:42;7.20;93.40
50690;DHT22;54375;48.298;11.238;2022-10-30T03:22:45;7.20;93.40
50690;DHT22;54375;48.298;11.238;2022-10-30T03:25:46;7.20;93.70
50690;DHT22;54375;48.298;11.238;2022-10-30T03:28:47;7.20;93.70
50690;DHT22;54375;48.298;11.238;2022-10-30T03:31:49;7.10;93.60
50690;DHT22;54375;48.298;11.238;2022-10-30T03:34:50;7.10;93.60
50690;DHT22;54375;48.298;11.238;2022-10-30T03:37:53;7.10;93.60
50690;DHT22;54375;48.298;11.238;2022-10-30T03:40:54;7.00;93.50
50690;DHT22;54375;48.298;11.238;2022-10-30T03:43:55;7.00;93.50
50690;DHT22;54375;48.298;11.238;2022-10-30T03:46:57;7.00;93.40
50690;DHT22;54375;48.298;11.238;2022-10-30T03:49:59;6.90;93.40
50690;DHT22;54375;48.298;11.238;2022-10-30T03:53:02;6.90;93.50
50690;DHT22;54375;48.298;11.238;2022-10-30T03:56:04;6.80;93.60
50690;DHT22;54375;48.298;11.238;2022-10-30T03:59:05;6.90;93.80
50690;DHT22;54375;48.298;11.238;2022-10-30T04:02:06;6.80;93.70
50690;DHT22;54375;48.298;11.238;2022-10-30T04:05:08;6.80;93.90
50690;DHT22;54375;48.298;11.238;2022-10-30T04:08:12;6.80;93.90
50690;DHT22;54375;48.298;11.238;2022-10-30T04:11:14;6.90;94.20
50690;DHT22;54375;48.298;11.238;2022-10-30T04:14:16;6.90;94.20
50690;DHT22;54375;48.298;11.238;2022-10-30T04:17:17;6.90;94.10
50690;DHT22;54375;48.298;11.238;2022-10-30T04:20:20;6.90;94.00
50690;DHT22;54375;48.298;11.238;2022-10-30T04:23:22;6.80;94.10
50690;DHT22;54375;48.298;11.238;2022-10-30T04:26:24;6.80;94.00
50690;DHT22;54375;48.298;11.238;2022-10-30T04:29:25;6.80;94.20
50690;DHT22;54375;48.298;11.238;2022-10-30T04:32:26;6.80;94.50
50690;DHT22;54375;48.298;11.238;2022-10-30T04:35:30;6.80;94.30
50690;DHT22;54375;48.298;11.238;2022-10-30T04:38:33;6.80;94.90
50690;DHT22;54375;48.298;11.238;2022-10-30T04:41:36;6.80;95.10
50690;DHT22;54375;48.298;11.238;2022-10-30T04:44:37;6.80;94.80
50690;DHT22;54375;48.298;11.238;2022-10-30T04:47:38;6.80;94.60
50690;DHT22;54375;48.298;11.238;2022-10-30T04:50:39;6.80;94.50
50690;DHT22;54375;48.298;11.238;2022-10-30T04:53:42;6.70;94.50
50690;DHT22;54375;48.298;11.238;2022-10-30T04:56:43;6.70;94.40
50690;DHT22;54375;48.298;11.238;2022-10-30T04:59:44;6.60;94.30
50690;DHT22;54375;48.298;11.238;2022-10-30T05:02:45;6.60;94.60
50690;DHT22;54375;48.298;11.238;2022-10-30T05:05:46;6.60;94.50
50690;DHT22;54375;48.298;11.238;2022-10-30T05:08:49;6.60;94.10
50690;DHT22;54375;48.298;11.238;2022-10-30T05:11:50;6.50;94.20
50690;DHT22;54375;48.298;11.238;2022-10-30T05:14:51;6.50;94.20
50690;DHT22;54375;48.298;11.238;2022-10-30T05:17:52;6.50;94.30
50690;DHT22;54375;48.298;11.238;2022-10-30T05:20:52;6.40;94.30
50690;DHT22;54375;48.298;11.238;2022-10-30T05:23:55;6.40;94.30
50690;DHT22;54375;48.298;11.238;2022-10-30T05:26:56;6.40;94.50
50690;DHT22;54375;48.298;11.238;2022-10-30T05:29:57;6.40;94.70
50690;DHT22;54375;48.298;11.238;2022-10-30T05:32:58;6.40;94.50
50690;DHT22;54375;48.298;11.238;2022-10-30T05:35:59;6.50;94.80
50690;DHT22;54375;48.298;11.238;2022-10-30T05:39:01;6.50;94.80
50690;DHT22;54375;48.298;11.238;2022-10-30T05:42:03;6.50;95.00
50690;DHT22;54375;48.298;11.238;2022-10-30T05:45:04;6.50;95.10
50690;DHT22;54375;48.298;11.238;2022-10-30T05:48:06;6.60;95.50
50690;DHT22;54375;48.298;11.238;2022-10-30T05:51:07;6.60;95.60
50690;DHT22;54375;48.298;11.238;2022-10-30T05:54:10;6.70;95.60
50690;DHT22;54375;48.298;11.238;2022-10-30T05:57:11;6.70;95.30
50690;DHT22;54375;48.298;11.238;2022-10-30T06:00:13;6.70;95.30
50690;DHT22;54375;48.298;11.238;2022-10-30T06:03:14;6.70;95.20
50690;DHT22;54375;48.298;11.238;2022-10-30T06:06:15;6.70;95.10
50690;DHT22;54375;48.298;11.238;2022-10-30T06:09:17;6.70;95.10
50690;DHT22;54375;48.298;11.238;2022-10-30T06:12:18;6.60;95.00
50690;DHT22;54375;48.298;11.238;2022-10-30T06:15:19;6.60;95.00
50690;DHT22;54375;48.298;11.238;2022-10-30T06:18:20;6.60;95.00
50690;DHT22;54375;48.298;11.238;2022-10-30T06:21:21;6.60;95.00
50690;DHT22;54375;48.298;11.238;2022-10-30T06:24:24;6.70;95.10
50690;DHT22;54375;48.298;11.238;2022-10-30T06:27:25;6.70;95.10
50690;DHT22;54375;48.298;11.238;2022-10-30T06:30:26;6.80;95.20
50690;DHT22;54375;48.298;11.238;2022-10-30T06:33:27;6.90;95.10
50690;DHT22;54375;48.298;11.238;2022-10-30T06:36:28;6.90;95.00
50690;DHT22;54375;48.298;11.238;2022-10-30T06:39:30;7.00;95.00
50690;DHT22;54375;48.298;11.238;2022-10-30T06:42:31;7.10;95.00
50690;DHT22;54375;48.298;11.238;2022-10-30T06:45:32;7.20;94.90
50690;DHT22;54375;48.298;11.238;2022-10-30T06:48:33;7.20;94.90
50690;DHT22;54375;48.298;11.238;2022-10-30T06:51:34;7.30;95.00
50690;DHT22;54375;48.298;11.238;2022-10-30T06:54:37;7.40;94.90
50690;DHT22;54375;48.298;11.238;2022-10-30T06:57:38;7.50;94.90
50690;DHT22;54375;48.298;11.238;2022-10-30T07:00:39;7.60;95.00
50690;DHT22;54375;48.298;11.238;2022-10-30T07:03:40;7.80;94.90
50690;DHT22;54375;48.298;11.238;2022-10-30T07:06:40;7.90;94.90
50690;DHT22;54375;48.298;11.238;2022-10-30T07:09:43;8.10;94.90
50690;DHT22;54375;48.298;11.238;2022-10-30T07:12:50;8.20;94.80
50690;DHT22;54375;48.298;11.238;2022-10-30T07:15:51;8.30;94.70
50690;DHT22;54375;48.298;11.238;2022-10-30T07:18:52;8.40;94.60
50690;DHT22;54375;48.298;11.238;2022-10-30T07:21:53;8.60;94.60
50690;DHT22;54375;48.298;11.238;2022-10-30T07:24:56;8.70;94.50
50690;DHT22;54375;48.298;11.238;2022-10-30T07:27:57;8.90;94.30
50690;DHT22;54375;48.298;11.238;2022-10-30T07:30:58;9.00;94.20
50690;DHT22;54375;48.298;11.238;2022-10-30T07:34:00;9.10;94.10
50690;DHT22;54375;48.298;11.238;2022-10-30T07:37:01;9.30;94.10
50690;DHT22;54375;48.298;11.238;2022-10-30T07:40:04;9.40;94.00
50690;DHT22;54375;48.298;11.238;2022-10-30T07:43:05;9.60;93.90
50690;DHT22;54375;48.298;11.238;2022-10-30T07:46:07;9.70;93.80
50690;DHT22;54375;48.298;11.238;2022-10-30T07:49:08;9.80;93.70
50690;DHT22;54375;48.298;11.238;2022-10-30T07:52:09;9.90;93.50
50690;DHT22;54375;48.298;11.238;2022-10-30T07:55:11;10.10;93.40
50690;DHT22;54375;48.298;11.238;2022-10-30T07:58:12;10.20;93.50
50690;DHT22;54375;48.298;11.238;2022-10-30T08:01:12;10.30;93.00
50690;DHT22;54375;48.298;11.238;2022-10-30T08:04:13;10.50;92.80
50690;DHT22;54375;48.298;11.238;2022-10-30T08:07:14;10.60;92.50
50690;DHT22;54375;48.298;11.238;2022-10-30T08:10:17;10.80;92.40
50690;DHT22;54375;48.298;11.238;2022-10-30T08:13:18;11.00;92.30
50690;DHT22;54375;48.298;11.238;2022-10-30T08:16:19;11.20;92.10
50690;DHT22;54375;48.298;11.238;2022-10-30T08:19:21;11.50;92.10
50690;DHT22;54375;48.298;11.238;2022-10-30T08:22:22;11.80;92.00
50690;DHT22;54375;48.298;11.238;2022-10-30T08:25:25;12.10;91.60
50690;DHT22;54375;48.298;11.238;2022-10-30T08:28:27;12.30;91.20
50690;DHT22;54375;48.298;11.238;2022-10-30T08:31:27;12.60;90.90
50690;DHT22;54375;48.298;11.238;2022-10-30T08:34:29;13.00;90.60
50690;DHT22;54375;48.298;11.238;2022-10-30T08:37:30;13.30;89.60
50690;DHT22;54375;48.298;11.238;2022-10-30T08:40:32;13.60;89.10
50690;DHT22;54375;48.298;11.238;2022-10-30T08:43:33;13.90;88.70
50690;DHT22;54375;48.298;11.238;2022-10-30T08:46:34;14.20;86.60
50690;DHT22;54375;48.298;11.238;2022-10-30T08:49:35;14.30;86.30
50690;DHT22;54375;48.298;11.238;2022-10-30T08:52:36;14.40;86.30
50690;DHT22;54375;48.298;11.238;2022-10-30T08:55:38;14.60;86.40
50690;DHT22;54375;48.298;11.238;2022-10-30T08:58:39;14.80;86.60
50690;DHT22;54375;48.298;11.238;2022-10-30T09:01:40;15.00;86.10
50690;DHT22;54375;48.298;11.238;2022-10-30T09:04:41;15.20;85.80
50690;DHT22;54375;48.298;11.238;2022-10-30T09:07:42;15.40;84.90
50690;DHT22;54375;48.298;11.238;2022-10-30T09:10:44;15.70;84.30
50690;DHT22;54375;48.298;11.238;2022-10-30T09:13:45;16.10;82.70
50690;DHT22;54375;48.298;11.238;2022-10-30T09:16:45;16.40;80.40
50690;DHT22;54375;48.298;11.238;2022-10-30T09:19:47;16.70;79.90
50690;DHT22;54375;48.298;11.238;2022-10-30T09:22:47;16.90;79.20
50690;DHT22;54375;48.298;11.238;2022-10-30T09:25:50;17.10;78.80
50690;DHT22;54375;48.298;11.238;2022-10-30T09:28:50;17.40;79.70
50690;DHT22;54375;48.298;11.238;2022-10-30T09:31:51;17.60;77.10
50690;DHT22;54375;48.298;11.238;2022-10-30T09:34:53;17.90;77.50
50690;DHT22;54375;48.298;11.238;2022-10-30T09:37:54;18.10;76.50
50690;DHT22;54375;48.298;11.238;2022-10-30T09:41:12;18.40;75.80
50690;DHT22;54375;48.298;11.238;2022-10-30T09:44:28;18.70;74.10
50690;DHT22;54375;48.298;11.238;2022-10-30T09:47:37;18.90;71.70
50690;DHT22;54375;48.298;11.238;2022-10-30T09:50:48;18.90;71.50
50690;DHT22;54375;48.298;11.238;2022-10-30T09:54:00;19.00;71.90
50690;DHT22;54375;48.298;11.238;2022-10-30T09:57:13;19.10;71.30
50690;DHT22;54375;48.298;11.238;2022-10-30T10:00:19;19.20;71.70
50690;DHT22;54375;48.298;11.238;2022-10-30T10:03:31;19.30;71.00
50690;DHT22;54375;48.298;11.238;2022-10-30T10:06:33;19.20;70.70
50690;DHT22;54375;48.298;11.238;2022-10-30T10:09:39;19.00;70.60
50690;DHT22;54375;48.298;11.238;2022-10-30T10:12:45;19.00;71.40
50690;DHT22;54375;48.298;11.238;2022-10-30T10:15:48;19.10;70.70
50690;DHT22;54375;48.298;11.238;2022-10-30T10:18:56;19.20;70.80
50690;DHT22;54375;48.298;11.238;2022-10-30T10:21:59;19.30;70.50
50690;DHT22;54375;48.298;11.238;2022-10-30T10:25:02;19.60;70.40
50690;DHT22;54375;48.298;11.238;2022-10-30T10:28:16;19.70;70.00
50690;DHT22;54375;48.298;11.238;2022-10-30T10:31:30;19.90;69.90
50690;DHT22;54375;48.298;11.238;2022-10-30T10:34:48;20.30;69.50
50690;DHT22;54375;48.298;11.238;2022-10-30T10:37:59;20.60;68.60
50690;DHT22;54375;48.298;11.238;2022-10-30T10:41:14;21.10;68.70
50690;DHT22;54375;48.298;11.238;2022-10-30T10:44:29;21.30;66.30
50690;DHT22;54375;48.298;11.238;2022-10-30T10:51:05;21.80;66.60
50690;DHT22;54375;48.298;11.238;2022-10-30T10:54:13;22.00;64.90
50690;DHT22;54375;48.298;11.238;2022-10-30T10:57:24;22.10;65.00
50690;DHT22;54375;48.298;11.238;2022-10-30T11:00:28;22.20;63.60
50690;DHT22;54375;48.298;11.238;2022-10-30T11:03:37;22.40;62.60
50690;DHT22;54375;48.298;11.238;2022-10-30T11:06:45;22.50;62.30
50690;DHT22;54375;48.298;11.238;2022-10-30T11:09:50;22.60;61.50
50690;DHT22;54375;48.298;11.238;2022-10-30T11:12:52;22.80;61.00
50690;DHT22;54375;48.298;11.238;2022-10-30T11:16:03;22.90;59.30
50690;DHT22;54375;48.298;11.238;2022-10-30T11:19:09;23.10;57.30
50690;DHT22;54375;48.298;11.238;2022-10-30T11:22:17;23.30;58.10
50690;DHT22;54375;48.298;11.238;2022-10-30T11:25:23;23.40;54.10
50690;DHT22;54375;48.298;11.238;2022-10-30T11:28:34;23.50;51.70
50690;DHT22;54375;48.298;11.238;2022-10-30T11:31:38;23.60;52.90
50690;DHT22;54375;48.298;11.238;2022-10-30T11:34:39;23.90;53.60
50690;DHT22;54375;48.298;11.238;2022-10-30T11:37:42;23.90;49.40
50690;DHT22;54375;48.298;11.238;2022-10-30T11:40:46;23.90;51.60
50690;DHT22;54375;48.298;11.238;2022-10-30T11:43:48;24.20;52.10
50690;DHT22;54375;48.298;11.238;2022-10-30T11:46:51;24.40;49.60
50690;DHT22;54375;48.298;11.238;2022-10-30T11:49:53;24.50;47.40
50690;DHT22;54375;48.298;11.238;2022-10-30T11:52:57;24.50;46.90
50690;DHT22;54375;48.298;11.238;2022-10-30T11:56:00;24.50;48.90
50690;DHT22;54375;48.298;11.238;2022-10-30T11:59:03;24.40;47.40
50690;DHT22;54375;48.298;11.238;2022-10-30T12:02:20;24.40;48.80
50690;DHT22;54375;48.298;11.238;2022-10-30T12:05:34;24.40;48.40
50690;DHT22;54375;48.298;11.238;2022-10-30T12:08:35;24.40;48.30
50690;DHT22;54375;48.298;11.238;2022-10-30T12:11:37;24.50;50.40
50690;DHT22;54375;48.298;11.238;2022-10-30T12:14:39;24.60;49.30
50690;DHT22;54375;48.298;11.238;2022-10-30T12:17:50;24.60;50.40
50690;DHT22;54375;48.298;11.238;2022-10-30T12:20:53;24.70;51.20
50690;DHT22;54375;48.298;11.238;2022-10-30T12:23:57;24.60;49.70
50690;DHT22;54375;48.298;11.238;2022-10-30T12:27:01;24.80;50.20
50690;DHT22;54375;48.298;11.238;2022-10-30T12:30:05;25.00;48.60
50690;DHT22;54375;48.298;11.238;2022-10-30T12:33:13;25.00;48.00
50690;DHT22;54375;48.298;11.238;2022-10-30T12:36:19;25.10;49.60
50690;DHT22;54375;48.298;11.238;2022-10-30T12:39:24;25.20;48.10
50690;DHT22;54375;48.298;11.238;2022-10-30T12:42:27;25.20;47.40
50690;DHT22;54375;48.298;11.238;2022-10-30T12:45:33;24.80;48.10
50690;DHT22;54375;48.298;11.238;2022-10-30T12:48:43;24.40;48.70
50690;DHT22;54375;48.298;11.238;2022-10-30T12:51:51;24.40;49.20
50690;DHT22;54375;48.298;11.238;2022-10-30T12:54:59;24.30;48.60
50690;DHT22;54375;48.298;11.238;2022-10-30T12:58:08;24.20;48.00
50690;DHT22;54375;48.298;11.238;2022-10-30T13:01:18;24.10;48.00
50690;DHT22;54375;48.298;11.238;2022-10-30T13:04:26;24.40;50.40
50690;DHT22;54375;48.298;11.238;2022-10-30T13:07:33;24.60;48.80
50690;DHT22;54375;48.298;11.238;2022-10-30T13:10:39;24.80;49.60
50690;DHT22;54375;48.298;11.238;2022-10-30T13:13:45;25.20;48.90
50690;DHT22;54375;48.298;11.238;2022-10-30T13:16:49;25.50;49.10
50690;DHT22;54375;48.298;11.238;2022-10-30T13:19:52;25.80;49.20
50690;DHT22;54375;48.298;11.238;2022-10-30T13:22:56;26.00;49.20
50690;DHT22;54375;48.298;11.238;2022-10-30T13:26:12;26.20;48.80
50690;DHT22;54375;48.298;11.238;2022-10-30T13:29:21;26.40;48.70
50690;DHT22;54375;48.298;11.238;2022-10-30T13:32:32;26.50;47.90
50690;DHT22;54375;48.298;11.238;2022-10-30T13:35:42;26.60;47.70
50690;DHT22;54375;48.298;11.238;2022-10-30T13:38:54;26.70;47.20
50690;DHT22;54375;48.298;11.238;2022-10-30T13:42:16;26.60;47.60
50690;DHT22;54375;48.298;11.238;2022-10-30T13:45:30;26.60;47.40
50690;DHT22;54375;48.298;11.238;2022-10-30T13:48:49;26.50;47.70
50690;DHT22;54375;48.298;11.238;2022-10-30T13:51:58;26.30;48.20
50690;DHT22;54375;48.298;11.238;2022-10-30T13:55:05;26.30;48.00
50690;DHT22;54375;48.298;11.238;2022-10-30T13:58:15;26.30;48.30
50690;DHT22;54375;48.298;11.238;2022-10-30T14:01:19;26.30;48.70
50690;DHT22;54375;48.298;11.238;2022-10-30T14:04:28;26.20;49.40
50690;DHT22;54375;48.298;11.238;2022-10-30T14:07:35;26.10;49.50
50690;DHT22;54375;48.298;11.238;2022-10-30T14:10:45;26.00;50.30
50690;DHT22;54375;48.298;11.238;2022-10-30T14:13:53;25.90;50.60
50690;DHT22;54375;48.298;11.238;2022-10-30T14:17:10;25.70;50.40
50690;DHT22;54375;48.298;11.238;2022-10-30T14:20:24;25.60;51.60
50690;DHT22;54375;48.298;11.238;2022-10-30T14:23:31;25.50;52.00
50690;DHT22;54375;48.298;11.238;2022-10-30T14:26:33;25.50;51.80
50690;DHT22;54375;48.298;11.238;2022-10-30T14:29:41;25.30;51.80
50690;DHT22;54375;48.298;11.238;2022-10-30T14:32:48;25.20;52.10
50690;DHT22;54375;48.298;11.238;2022-10-30T14:36:11;25.00;52.00
50690;DHT22;54375;48.298;11.238;2022-10-30T14:39:28;24.80;52.60
50690;DHT22;54375;48.298;11.238;2022-10-30T14:42:35;24.60;52.10
50690;DHT22;54375;48.298;11.238;2022-10-30T14:45:44;24.40;53.10
50690;DHT22;54375;48.298;11.238;2022-10-30T14:48:52;24.20;54.00
50690;DHT22;54375;48.298;11.238;2022-10-30T14:52:07;24.10;54.40
50690;DHT22;54375;48.298;11.238;2022-10-30T14:55:23;24.00;55.10
50690;DHT22;54375;48.298;11.238;2022-10-30T14:58:26;23.80;55.80
50690;DHT22;54375;48.298;11.238;2022-10-30T15:01:38;23.70;56.50
50690;DHT22;54375;48.298;11.238;2022-10-30T15:05:01;23.50;57.20
50690;DHT22;54375;48.298;11.238;2022-10-30T15:08:22;23.30;57.90
50690;DHT22;54375;48.298;11.238;2022-10-30T15:11:41;23.10;57.90
50690;DHT22;54375;48.298;11.238;2022-10-30T15:14:51;22.80;59.00
50690;DHT22;54375;48.298;11.238;2022-10-30T15:17:54;22.60;60.20
50690;DHT22;54375;48.298;11.238;2022-10-30T15:21:03;22.40;60.50
50690;DHT22;54375;48.298;11.238;2022-10-30T15:24:11;22.30;60.70
50690;DHT22;54375;48.298;11.238;2022-10-30T15:27:16;22.20;61.20
50690;DHT22;54375;48.298;11.238;2022-10-30T15:30:20;22.00;61.50
50690;DHT22;54375;48.298;11.238;2022-10-30T15:33:21;21.80;62.00
50690;DHT22;54375;48.298;11.238;2022-10-30T15:36:24;21.70;63.70
50690;DHT22;54375;48.298;11.238;2022-10-30T15:39:25;21.50;65.10
50690;DHT22;54375;48.298;11.238;2022-10-30T15:42:27;21.30;66.00
50690;DHT22;54375;48.298;11.238;2022-10-30T15:45:32;21.10;66.70
50690;DHT22;54375;48.298;11.238;2022-10-30T15:48:34;20.80;67.30
50690;DHT22;54375;48.298;11.238;2022-10-30T15:51:35;20.60;68.20
50690;DHT22;54375;48.298;11.238;2022-10-30T15:54:39;20.30;69.20
50690;DHT22;54375;48.298;11.238;2022-10-30T15:57:44;20.00;69.90
50690;DHT22;54375;48.298;11.238;2022-10-30T16:00:54;19.70;71.00
50690;DHT22;54375;48.298;11.238;2022-10-30T16:03:55;19.50;72.50
50690;DHT22;54375;48.298;11.238;2022-10-30T16:06:59;19.20;73.30
50690;DHT22;54375;48.298;11.238;2022-10-30T16:10:13;19.00;73.40
50690;DHT22;54375;48.298;11.238;2022-10-30T16:13:24;18.80;73.40
50690;DHT22;54375;48.298;11.238;2022-10-30T16:16:29;18.60;73.80
50690;DHT22;54375;48.298;11.238;2022-10-30T16:19:39;18.50;73.90
50690;DHT22;54375;48.298;11.238;2022-10-30T16:22:40;18.30;74.20
50690;DHT22;54375;48.298;11.238;2022-10-30T16:25:41;18.10;74.50
50690;DHT22;54375;48.298;11.238;2022-10-30T16:28:46;17.90;74.80
50690;DHT22;54375;48.298;11.238;2022-10-30T16:31:48;17.80;75.60
50690;DHT22;54375;48.298;11.238;2022-10-30T16:34:49;17.60;75.70
50690;DHT22;54375;48.298;11.238;2022-10-30T16:37:55;17.40;76.00
50690;DHT22;54375;48.298;11.238;2022-10-30T16:40:56;17.20;76.20
50690;DHT22;54375;48.298;11.238;2022-10-30T16:44:15;17.10;76.50
50690;DHT22;54375;48.298;11.238;2022-10-30T16:47:24;16.90;76.90
50690;DHT22;54375;48.298;11.238;2022-10-30T16:50:29;16.70;77.70
50690;DHT22;54375;48.298;11.238;2022-10-30T16:53:31;16.50;77.30
50690;DHT22;54375;48.298;11.238;2022-10-30T16:56:32;16.30;78.00
50690;DHT22;54375;48.298;11.238;2022-10-30T16:59:36;16.20;78.70
50690;DHT22;54375;48.298;11.238;2022-10-30T17:02:44;16.00;78.90
50690;DHT22;54375;48.298;11.238;2022-10-30T17:05:55;15.80;79.40
50690;DHT22;54375;48.298;11.238;2022-10-30T17:08:58;15.70;80.10
50690;DHT22;54375;48.298;11.238;2022-10-30T17:12:03;15.50;81.00
50690;DHT22;54375;48.298;11.238;2022-10-30T17:15:12;15.30;81.00
50690;DHT22;54375;48.298;11.238;2022-10-30T17:18:15;15.20;81.10
50690;DHT22;54375;48.298;11.238;2022-10-30T17:21:17;15.00;81.40
50690;DHT22;54375;48.298;11.238;2022-10-30T17:24:21;14.90;81.50
50690;DHT22;54375;48.298;11.238;2022-10-30T17:27:28;14.80;81.60
50690;DHT22;54375;48.298;11.238;2022-10-30T17:30:39;14.70;81.90
50690;DHT22;54375;48.298;11.238;2022-10-30T17:33:40;14.50;82.60
50690;DHT22;54375;48.298;11.238;2022-10-30T17:36:42;14.40;83.30
50690;DHT22;54375;48.298;11.238;2022-10-30T17:39:43;14.30;83.70
50690;DHT22;54375;48.298;11.238;2022-10-30T17:42:44;14.20;83.70
50690;DHT22;54375;48.298;11.238;2022-10-30T17:45:46;14.10;83.60
50690;DHT22;54375;48.298;11.238;2022-10-30T17:48:50;14.00;83.70
50690;DHT22;54375;48.298;11.238;2022-10-30T17:51:51;13.90;84.20
50690;DHT22;54375;48.298;11.238;2022-10-30T17:54:52;13.80;84.50
50690;DHT22;54375;48.298;11.238;2022-10-30T17:57:53;13.70;85.10
50690;DHT22;54375;48.298;11.238;2022-10-30T18:00:56;13.50;85.40
50690;DHT22;54375;48.298;11.238;2022-10-30T18:03:58;13.40;85.60
50690;DHT22;54375;48.298;11.238;2022-10-30T18:06:59;13.30;85.80
50690;DHT22;54375;48.298;11.238;2022-10-30T18:10:00;13.20;86.50
50690;DHT22;54375;48.298;11.238;2022-10-30T18:13:01;13.10;86.40
50690;DHT22;54375;48.298;11.238;2022-10-30T18:16:04;13.00;87.30
50690;DHT22;54375;48.298;11.238;2022-10-30T18:19:08;12.90;88.60
50690;DHT22;54375;48.298;11.238;2022-10-30T18:22:10;12.80;88.30
50690;DHT22;54375;48.298;11.238;2022-10-30T18:25:15;12.70;89.00
50690;DHT22;54375;48.298;11.238;2022-10-30T18:28:17;12.60;89.50
50690;DHT22;54375;48.298;11.238;2022-10-30T18:31:21;12.60;90.20
50690;DHT22;54375;48.298;11.238;2022-10-30T18:34:23;12.50;90.10
50690;DHT22;54375;48.298;11.238;2022-10-30T18:37:23;12.40;90.50
50690;DHT22;54375;48.298;11.238;2022-10-30T18:40:24;12.30;90.20
50690;DHT22;54375;48.298;11.238;2022-10-30T18:43:25;12.30;89.90
50690;DHT22;54375;48.298;11.238;2022-10-30T18:46:29;12.20;89.30
50690;DHT22;54375;48.298;11.238;2022-10-30T18:49:31;12.10;89.40
50690;DHT22;54375;48.298;11.238;2022-10-30T18:52:32;12.00;89.50
50690;DHT22;54375;48.298;11.238;2022-10-30T18:55:34;11.90;89.60
50690;DHT22;54375;48.298;11.238;2022-10-30T18:58:35;11.90;89.40
50690;DHT22;54375;48.298;11.238;2022-10-30T19:01:38;11.80;89.30
50690;DHT22;54375;48.298;11.238;2022-10-30T19:04:39;11.80;89.70
50690;DHT22;54375;48.298;11.238;2022-10-30T19:07:40;11.70;90.00
50690;DHT22;54375;48.298;11.238;2022-10-30T19:10:43;11.60;89.90
50690;DHT22;54375;48.298;11.238;2022-10-30T19:13:45;11.50;89.90
50690;DHT22;54375;48.298;11.238;2022-10-30T19:16:48;11.50;90.00
50690;DHT22;54375;48.298;11.238;2022-10-30T19:19:49;11.50;90.10